createdAt,value
2022-12-03T00:01:46.851Z,11.68
2022-12-03T00:04:15.234Z,12.18
2022-12-03T00:06:43.624Z,13.00
2022-12-03T00:09:11.978Z,11.73
2022-12-03T00:11:40.341Z,11.60
2022-12-03T00:14:10.119Z,12.15
2022-12-03T00:16:38.382Z,12.15
2022-12-03T00:19:07.859Z,12.63
2022-12-03T00:21:36.529Z,11.90
2022-12-03T00:24:05.092Z,12.10
2022-12-03T00:26:33.761Z,12.77
2022-12-03T00:29:02.465Z,12.63
2022-12-03T00:31:32.668Z,13.25
2022-12-03T00:34:01.017Z,12.57
2022-12-03T00:36:29.795Z,13.02
2022-12-03T00:38:58.093Z,12.98
2022-12-03T00:41:26.408Z,13.45
2022-12-03T00:43:57.698Z,13.75
2022-12-03T00:46:26.301Z,14.13
2022-12-03T00:48:56.415Z,15.20
2022-12-03T00:51:24.677Z,13.02
2022-12-03T00:53:53.098Z,13.43
2022-12-03T00:56:21.493Z,13.68
2022-12-03T00:58:49.846Z,13.65
2022-12-03T01:01:18.358Z,13.68
2022-12-03T01:03:46.882Z,13.75
2022-12-03T01:06:16.615Z,13.25
2022-12-03T01:08:44.938Z,13.82
2022-12-03T01:11:26.967Z,13.68
2022-12-03T01:13:55.273Z,14.27
2022-12-03T01:16:23.678Z,16.70
2022-12-03T01:18:53.051Z,15.65
2022-12-03T01:21:22.898Z,17.23
2022-12-03T01:23:51.304Z,16.55
2022-12-03T01:26:19.605Z,16.17
2022-12-03T01:28:48.213Z,15.27
2022-12-03T01:31:33.831Z,16.27
2022-12-03T01:34:02.251Z,15.10
2022-12-03T01:36:32.024Z,15.02
2022-12-03T01:39:00.395Z,16.05
2022-12-03T01:41:29.271Z,16.42
2022-12-03T01:43:59.334Z,16.27
2022-12-03T01:46:33.309Z,17.33
2022-12-03T01:49:02.466Z,17.38
2022-12-03T01:51:32.721Z,17.45
2022-12-03T01:54:02.291Z,17.73
2022-12-03T01:56:30.630Z,15.70
2022-12-03T01:58:59.032Z,16.33
2022-12-03T02:01:27.430Z,15.93
2022-12-03T02:03:56.194Z,16.35
2022-12-03T02:06:27.586Z,16.40
2022-12-03T02:09:00.182Z,17.05
2022-12-03T02:11:33.353Z,17.50
2022-12-03T02:14:06.833Z,17.60
2022-12-03T02:16:36.600Z,16.60
2022-12-03T02:19:10.003Z,17.92
2022-12-03T02:21:45.893Z,17.08
2022-12-03T02:24:24.102Z,19.80
2022-12-03T02:26:54.507Z,18.58
2022-12-03T02:29:23.615Z,17.55
2022-12-03T02:31:52.394Z,17.17
2022-12-03T02:34:38.410Z,17.48
2022-12-03T02:37:08.853Z,16.83
2022-12-03T02:39:41.223Z,17.30
2022-12-03T02:42:29.270Z,17.88
2022-12-03T02:45:04.684Z,18.50
2022-12-03T02:47:35.619Z,19.25
2022-12-03T02:50:04.702Z,18.80
2022-12-03T02:52:33.671Z,18.85
2022-12-03T02:55:04.017Z,18.38
2022-12-03T02:57:34.880Z,18.48
2022-12-03T03:00:03.427Z,18.90
2022-12-03T03:02:31.963Z,18.33
2022-12-03T03:05:01.017Z,17.65
2022-12-03T03:07:30.005Z,18.50
2022-12-03T03:09:59.242Z,17.85
2022-12-03T03:12:27.757Z,18.05
2022-12-03T03:14:57.676Z,18.55
2022-12-03T03:17:26.224Z,17.65
2022-12-03T03:19:54.764Z,18.95
2022-12-03T03:22:23.167Z,17.67
2022-12-03T03:24:51.804Z,17.95
2022-12-03T03:27:20.571Z,17.35
2022-12-03T03:29:48.931Z,18.50
2022-12-03T03:32:18.973Z,17.17
2022-12-03T03:34:47.352Z,18.27
2022-12-03T03:37:15.837Z,17.98
2022-12-03T03:39:44.457Z,16.75
2022-12-03T03:42:13.107Z,17.33
2022-12-03T03:44:42.291Z,16.60
2022-12-03T03:47:10.834Z,16.67
2022-12-03T03:49:40.758Z,20.05
2022-12-03T03:52:11.837Z,18.98
2022-12-03T03:54:41.858Z,19.05
2022-12-03T03:57:10.231Z,18.30
2022-12-03T03:59:38.692Z,20.08
2022-12-03T04:02:07.389Z,21.35
2022-12-03T04:04:38.049Z,18.17
2022-12-03T04:07:08.673Z,18.20
2022-12-03T04:09:36.981Z,20.38
2022-12-03T04:12:23.254Z,20.98
2022-12-03T04:14:51.914Z,18.92
2022-12-03T04:17:20.548Z,17.95
2022-12-03T04:19:48.904Z,16.58
2022-12-03T04:22:35.936Z,17.80
2022-12-03T04:25:18.089Z,17.17
2022-12-03T04:28:03.836Z,16.77
2022-12-03T04:30:32.503Z,17.10
2022-12-03T04:33:18.258Z,17.77
2022-12-03T04:35:46.812Z,17.08
2022-12-03T04:38:17.754Z,16.92
2022-12-03T04:41:02.797Z,15.85
2022-12-03T04:43:32.895Z,16.33
2022-12-03T04:46:01.819Z,15.32
2022-12-03T04:48:30.220Z,16.38
2022-12-03T04:50:58.517Z,16.23
2022-12-03T04:53:28.313Z,16.77
2022-12-03T04:55:56.660Z,17.90
2022-12-03T04:58:24.971Z,16.85
2022-12-03T05:00:53.398Z,17.50
2022-12-03T05:03:21.824Z,17.67
2022-12-03T05:05:50.118Z,17.88
2022-12-03T05:08:18.574Z,17.33
2022-12-03T05:10:48.390Z,18.05
2022-12-03T05:13:16.710Z,17.83
2022-12-03T05:15:44.955Z,17.70
2022-12-03T05:18:13.374Z,17.98
2022-12-03T05:20:49.764Z,18.45
2022-12-03T05:23:19.859Z,19.60
2022-12-03T05:25:49.753Z,19.73
2022-12-03T05:28:18.198Z,18.50
2022-12-03T05:30:46.636Z,19.27
2022-12-03T05:33:15.044Z,20.77
2022-12-03T05:35:43.354Z,19.92
2022-12-03T05:38:11.854Z,19.60
2022-12-03T05:40:40.314Z,19.15
2022-12-03T05:43:09.147Z,22.65
2022-12-03T05:45:39.472Z,20.23
2022-12-03T05:48:09.329Z,21.08
2022-12-03T05:50:39.740Z,24.48
2022-12-03T05:53:08.213Z,21.52
2022-12-03T05:55:36.549Z,21.08
2022-12-03T05:58:05.036Z,24.13
2022-12-03T06:00:42.417Z,24.55
2022-12-03T06:03:12.122Z,22.10
2022-12-03T06:05:40.564Z,24.83
2022-12-03T06:08:09.086Z,22.65
2022-12-03T06:10:38.053Z,24.40
2022-12-03T06:13:06.350Z,22.45
2022-12-03T06:15:41.987Z,23.17
2022-12-03T06:18:12.204Z,24.05
2022-12-03T06:20:40.605Z,22.75
2022-12-03T06:23:09.000Z,23.08
2022-12-03T06:25:37.322Z,23.15
2022-12-03T06:28:07.186Z,22.08
2022-12-03T06:30:37.387Z,26.30
2022-12-03T06:33:05.855Z,27.15
2022-12-03T06:35:34.241Z,26.50
2022-12-03T06:38:02.649Z,25.25
2022-12-03T06:43:13.816Z,24.30
2022-12-03T06:45:47.669Z,26.00
2022-12-03T06:48:17.243Z,27.13
2022-12-03T06:50:45.565Z,26.85
2022-12-03T06:53:13.888Z,25.05
2022-12-03T06:55:42.394Z,25.17
2022-12-03T06:58:10.763Z,25.75
2022-12-03T07:00:39.085Z,26.02
2022-12-03T07:03:09.329Z,24.75
2022-12-03T07:05:37.879Z,27.45
2022-12-03T07:08:06.822Z,32.13
2022-12-03T07:10:35.829Z,34.28
2022-12-03T07:13:04.225Z,28.20
2022-12-03T07:15:32.511Z,24.63
2022-12-03T07:18:00.855Z,31.40
2022-12-03T07:20:30.887Z,29.00
2022-12-03T07:22:59.294Z,28.73
2022-12-03T07:25:27.558Z,31.85
2022-12-03T07:27:55.985Z,28.05
2022-12-03T07:30:25.823Z,29.98
2022-12-03T07:32:54.340Z,26.30
2022-12-03T07:35:22.916Z,29.05
2022-12-03T07:37:52.739Z,31.40
2022-12-03T07:40:21.419Z,27.58
2022-12-03T07:42:49.739Z,24.55
2022-12-03T07:45:18.222Z,32.08
2022-12-03T07:47:46.537Z,29.35
2022-12-03T07:50:14.903Z,27.00
2022-12-03T07:52:43.294Z,30.63
2022-12-03T07:55:13.628Z,28.17
2022-12-03T07:57:42.047Z,23.90
2022-12-03T08:00:11.917Z,22.48
2022-12-03T08:02:40.375Z,22.95
2022-12-03T08:05:09.232Z,32.45
2022-12-03T08:07:37.804Z,29.90
2022-12-03T08:10:07.512Z,30.67
2022-12-03T08:12:42.346Z,30.08
2022-12-03T08:15:14.138Z,32.72
2022-12-03T08:17:42.553Z,28.55
2022-12-03T08:20:16.077Z,27.77
2022-12-03T08:22:45.345Z,25.00
2022-12-03T08:25:21.261Z,25.02
2022-12-03T08:27:52.206Z,23.42
2022-12-03T08:30:21.704Z,24.63
2022-12-03T08:32:50.326Z,23.60
2022-12-03T08:35:23.935Z,24.42
2022-12-03T08:40:34.758Z,23.73
2022-12-03T08:43:14.173Z,23.13
2022-12-03T08:45:44.308Z,23.90
2022-12-03T08:48:34.190Z,25.30
2022-12-03T08:51:07.717Z,24.27
2022-12-03T08:53:37.813Z,23.95
2022-12-03T08:56:16.541Z,23.40
2022-12-03T08:58:49.151Z,25.08
2022-12-03T09:01:32.435Z,27.88
2022-12-03T09:04:15.652Z,26.90
2022-12-03T09:06:44.196Z,25.60
2022-12-03T09:09:12.908Z,25.10
2022-12-03T09:11:43.261Z,26.30
2022-12-03T09:14:18.258Z,26.88
2022-12-03T09:16:48.032Z,25.95
2022-12-03T09:19:16.785Z,25.58
2022-12-03T09:21:45.279Z,22.98
2022-12-03T09:24:14.129Z,25.52
2022-12-03T09:26:42.544Z,24.42
2022-12-03T09:29:12.913Z,25.08
2022-12-03T09:31:41.788Z,27.05
2022-12-03T09:34:10.620Z,25.55
2022-12-03T09:36:39.063Z,25.17
2022-12-03T09:39:07.785Z,27.23
2022-12-03T09:41:36.243Z,29.17
2022-12-03T09:44:05.717Z,32.05
2022-12-03T09:46:37.632Z,31.08
2022-12-03T09:49:13.974Z,26.85
2022-12-03T09:51:45.287Z,27.00
2022-12-03T09:54:23.542Z,26.00
2022-12-03T09:56:52.234Z,24.98
2022-12-03T09:59:20.747Z,23.13
2022-12-03T10:01:50.813Z,28.02
2022-12-03T10:04:19.428Z,26.13
2022-12-03T10:06:48.331Z,25.63
2022-12-03T10:09:21.134Z,24.92
2022-12-03T10:11:49.626Z,24.35
2022-12-03T10:14:20.232Z,25.25
2022-12-03T10:16:48.783Z,24.48
2022-12-03T10:19:25.159Z,25.08
2022-12-03T10:21:53.683Z,24.05
2022-12-03T10:24:26.677Z,24.33
2022-12-03T10:26:57.423Z,23.13
2022-12-03T10:29:33.324Z,25.65
2022-12-03T10:32:03.659Z,24.10
2022-12-03T10:34:35.238Z,24.50
2022-12-03T10:37:15.528Z,26.08
2022-12-03T10:40:01.515Z,23.48
2022-12-03T10:42:31.901Z,26.05
2022-12-03T10:45:15.753Z,27.35
2022-12-03T10:47:44.731Z,25.88
2022-12-03T10:50:21.522Z,25.42
2022-12-03T10:52:49.952Z,25.88
2022-12-03T10:55:18.399Z,26.48
2022-12-03T10:57:47.235Z,26.58
2022-12-03T11:00:20.527Z,27.58
2022-12-03T11:02:54.863Z,27.92
2022-12-03T11:05:28.855Z,27.60
2022-12-03T11:07:58.128Z,26.00
2022-12-03T11:10:26.731Z,23.75
2022-12-03T11:13:30.982Z,24.60
2022-12-03T11:15:59.796Z,25.73
2022-12-03T11:19:00.051Z,25.08
2022-12-03T11:21:30.594Z,27.67
2022-12-03T11:24:16.172Z,25.45
2022-12-03T11:27:27.183Z,23.33
2022-12-03T11:30:04.454Z,23.40
2022-12-03T11:33:06.464Z,23.65
2022-12-03T11:35:59.765Z,24.48
2022-12-03T11:38:58.290Z,25.30
2022-12-03T11:41:29.685Z,26.40
2022-12-03T11:44:28.486Z,24.17
2022-12-03T11:46:59.093Z,25.52
2022-12-03T11:49:36.795Z,23.45
2022-12-03T11:52:20.722Z,24.13
2022-12-03T11:57:29.923Z,23.38
2022-12-03T11:59:59.647Z,24.00
2022-12-03T12:02:28.035Z,24.65
2022-12-03T12:04:56.456Z,25.15
2022-12-03T12:07:37.823Z,22.27
2022-12-03T12:10:09.141Z,24.40
2022-12-03T12:12:40.914Z,24.60
2022-12-03T12:15:44.424Z,24.38
2022-12-03T12:18:37.668Z,30.07
2022-12-03T12:21:40.073Z,26.55
2022-12-03T12:24:36.068Z,23.70
2022-12-03T12:27:08.246Z,24.10
2022-12-03T12:29:37.157Z,22.90
2022-12-03T12:32:16.051Z,22.45
2022-12-03T12:34:46.291Z,23.58
2022-12-03T12:37:22.715Z,23.73
2022-12-03T12:39:55.769Z,21.40
2022-12-03T12:42:34.809Z,24.23
2022-12-03T12:45:13.841Z,23.60
2022-12-03T12:47:49.106Z,24.27
2022-12-03T12:50:19.027Z,24.10
2022-12-03T12:52:53.612Z,23.75
2022-12-03T12:55:24.035Z,23.88
2022-12-03T12:57:53.892Z,23.90
2022-12-03T13:00:24.531Z,20.45
2022-12-03T13:02:56.560Z,19.38
2022-12-03T13:05:27.891Z,19.90
2022-12-03T13:07:56.580Z,20.85
2022-12-03T13:10:38.030Z,21.10
2022-12-03T13:13:21.743Z,21.40
2022-12-03T13:15:53.704Z,20.38
2022-12-03T13:18:28.846Z,19.50
2022-12-03T13:20:57.416Z,21.02
2022-12-03T13:23:31.746Z,20.48
2022-12-03T13:26:13.163Z,18.48
2022-12-03T13:28:53.110Z,20.67
2022-12-03T13:31:28.018Z,18.27
2022-12-03T13:33:57.691Z,19.48
2022-12-03T13:36:37.466Z,19.50
2022-12-03T13:39:14.975Z,20.33
2022-12-03T13:42:01.118Z,20.85
2022-12-03T13:44:32.621Z,19.25
2022-12-03T13:47:03.583Z,19.77
2022-12-03T13:49:32.970Z,18.88
2022-12-03T13:52:02.277Z,20.52
2022-12-03T13:54:36.989Z,18.13
2022-12-03T13:57:06.146Z,18.55
2022-12-03T13:59:35.930Z,18.60
2022-12-03T14:02:04.399Z,20.25
2022-12-03T14:04:32.782Z,18.73
2022-12-03T14:07:01.160Z,19.27
2022-12-03T14:09:29.594Z,19.05
2022-12-03T14:12:15.346Z,20.35
2022-12-03T14:14:45.643Z,18.52
2022-12-03T14:17:14.118Z,19.70
2022-12-03T14:19:42.536Z,18.88
2022-12-03T14:22:10.958Z,19.02
2022-12-03T14:24:40.045Z,17.65
2022-12-03T14:27:08.415Z,18.60
2022-12-03T14:29:36.848Z,17.58
2022-12-03T14:32:06.856Z,17.00
2022-12-03T14:34:35.291Z,19.15
2022-12-03T14:37:03.711Z,19.80
2022-12-03T14:39:32.194Z,21.10
2022-12-03T14:42:15.745Z,20.02
2022-12-03T14:44:45.836Z,18.92
2022-12-03T14:47:17.096Z,18.20
2022-12-03T14:49:45.690Z,18.90
2022-12-03T14:52:14.058Z,18.77
2022-12-03T14:54:43.460Z,17.95
2022-12-03T14:57:12.929Z,17.40
2022-12-03T14:59:41.634Z,18.35
2022-12-03T15:02:10.497Z,19.30
2022-12-03T15:04:41.737Z,18.38
2022-12-03T15:07:11.110Z,19.08
2022-12-03T15:09:39.824Z,19.70
2022-12-03T15:12:09.024Z,19.30
2022-12-03T15:14:37.354Z,19.33
2022-12-03T15:17:05.687Z,20.92
2022-12-03T15:19:34.501Z,18.50
2022-12-03T15:22:04.339Z,18.73
2022-12-03T15:24:32.800Z,21.30
2022-12-03T15:27:01.074Z,21.45
2022-12-03T15:29:30.447Z,20.92
2022-12-03T15:31:59.491Z,21.30
2022-12-03T15:34:28.814Z,21.80
2022-12-03T15:36:57.089Z,21.30
2022-12-03T15:39:26.944Z,24.13
2022-12-03T15:41:55.259Z,25.63
2022-12-03T15:44:23.630Z,26.67
2022-12-03T15:46:51.889Z,26.42
2022-12-03T15:49:20.243Z,24.55
2022-12-03T15:51:48.547Z,23.00
2022-12-03T15:54:16.897Z,27.30
2022-12-03T15:56:46.982Z,25.17
2022-12-03T15:59:15.413Z,22.95
2022-12-03T16:01:43.936Z,28.15
2022-12-03T16:04:12.329Z,41.50
2022-12-03T16:06:40.593Z,25.92
2022-12-03T16:09:09.017Z,32.83
2022-12-03T16:11:37.356Z,33.33
2022-12-03T16:14:07.184Z,28.55
2022-12-03T16:16:35.749Z,29.67
2022-12-03T16:19:04.133Z,25.23
2022-12-03T16:21:34.786Z,29.10
2022-12-03T16:24:04.181Z,23.63
2022-12-03T16:26:32.955Z,24.50
2022-12-03T16:29:01.263Z,20.88
2022-12-03T16:31:31.253Z,22.42
2022-12-03T16:33:59.824Z,23.52
2022-12-03T16:36:28.202Z,22.63
2022-12-03T16:38:56.461Z,26.67
2022-12-03T16:41:24.903Z,28.35
2022-12-03T16:43:53.203Z,25.70
2022-12-03T16:46:25.788Z,23.88
2022-12-03T16:48:58.077Z,28.15
2022-12-03T16:51:26.841Z,24.75
2022-12-03T16:53:55.568Z,22.88
2022-12-03T16:56:23.889Z,23.92
2022-12-03T16:58:52.380Z,24.08
2022-12-03T17:01:20.744Z,24.38
2022-12-03T17:03:49.210Z,27.15
2022-12-03T17:06:18.897Z,20.77
2022-12-03T17:08:50.242Z,23.42
2022-12-03T17:11:19.255Z,25.38
2022-12-03T17:13:47.680Z,24.73
2022-12-03T17:16:16.158Z,20.83
2022-12-03T17:18:44.489Z,22.10
2022-12-03T17:21:12.851Z,24.55
2022-12-03T17:23:42.711Z,22.75
2022-12-03T17:26:11.002Z,25.50
2022-12-03T17:28:39.454Z,23.60
2022-12-03T17:31:07.852Z,21.38
2022-12-03T17:33:36.421Z,20.90
2022-12-03T17:36:05.437Z,21.75
2022-12-03T17:38:38.837Z,19.63
2022-12-03T17:41:09.163Z,21.23
2022-12-03T17:43:37.566Z,24.73
2022-12-03T17:46:07.533Z,28.17
2022-12-03T17:48:54.080Z,25.27
2022-12-03T17:51:22.432Z,32.08
2022-12-03T17:53:50.848Z,23.80
2022-12-03T17:56:20.990Z,27.60
2022-12-03T17:58:49.656Z,25.67
2022-12-03T18:01:18.071Z,33.25
2022-12-03T18:03:47.189Z,32.47
2022-12-03T18:06:15.519Z,34.35
2022-12-03T18:08:43.898Z,33.25
2022-12-03T18:11:12.335Z,34.47
2022-12-03T18:13:42.725Z,35.60
2022-12-03T18:16:11.558Z,26.85
2022-12-03T18:18:39.901Z,24.63
2022-12-03T18:21:08.443Z,23.85
2022-12-03T18:23:37.277Z,27.58
2022-12-03T18:26:06.770Z,29.75
2022-12-03T18:28:35.268Z,28.73
2022-12-03T18:31:10.506Z,26.08
2022-12-03T18:33:38.987Z,24.98
2022-12-03T18:36:13.469Z,23.50
2022-12-03T18:38:43.442Z,21.27
2022-12-03T18:41:11.877Z,21.77
2022-12-03T18:43:43.362Z,21.92
2022-12-03T18:46:31.205Z,21.05
2022-12-03T18:49:03.129Z,23.98
2022-12-03T18:51:31.465Z,23.35
2022-12-03T18:53:59.849Z,25.30
2022-12-03T18:56:28.329Z,25.45
2022-12-03T18:58:57.036Z,20.83
2022-12-03T19:01:26.795Z,22.02
2022-12-03T19:03:55.725Z,24.60
2022-12-03T19:06:24.360Z,23.27
2022-12-03T19:08:54.631Z,21.27
2022-12-03T19:11:23.768Z,19.67
2022-12-03T19:13:52.811Z,20.10
2022-12-03T19:16:21.363Z,20.23
2022-12-03T19:18:53.254Z,19.67
2022-12-03T19:21:21.508Z,18.35
2022-12-03T19:24:16.403Z,19.95
2022-12-03T19:26:39.493Z,18.95
2022-12-03T19:29:08.793Z,20.02
2022-12-03T19:31:37.217Z,22.08
2022-12-03T19:34:07.169Z,21.73
2022-12-03T19:36:35.648Z,21.80
2022-12-03T19:39:04.362Z,19.92
2022-12-03T19:41:32.682Z,18.63
2022-12-03T19:44:03.145Z,20.13
2022-12-03T19:46:34.907Z,20.88
2022-12-03T19:49:04.987Z,21.25
2022-12-03T19:51:36.185Z,20.08
2022-12-03T19:54:05.421Z,20.08
2022-12-03T19:56:33.810Z,19.13
2022-12-03T19:59:02.522Z,21.50
2022-12-03T20:01:33.388Z,19.98
2022-12-03T20:04:04.249Z,22.02
2022-12-03T20:06:36.019Z,19.73
2022-12-03T20:09:07.748Z,20.95
2022-12-03T20:11:36.656Z,21.02
2022-12-03T20:14:08.196Z,20.13
2022-12-03T20:16:37.271Z,20.23
2022-12-03T20:19:07.497Z,19.73
2022-12-03T20:21:39.044Z,18.85
2022-12-03T20:24:08.265Z,19.98
2022-12-03T20:26:36.621Z,19.42
2022-12-03T20:29:05.407Z,22.67
2022-12-03T20:31:34.198Z,19.55
2022-12-03T20:34:04.475Z,20.95
2022-12-03T20:36:33.630Z,17.88
2022-12-03T20:39:05.395Z,17.70
2022-12-03T20:41:36.160Z,16.58
2022-12-03T20:44:06.126Z,15.63
2022-12-03T20:46:34.550Z,15.55
2022-12-03T20:49:03.041Z,16.17
2022-12-03T20:51:32.348Z,15.88
2022-12-03T20:54:03.206Z,15.93
2022-12-03T20:56:34.411Z,13.93
2022-12-03T20:59:04.986Z,13.07
2022-12-03T21:01:33.771Z,13.73
2022-12-03T21:04:02.599Z,14.10
2022-12-03T21:06:31.176Z,14.00
2022-12-03T21:09:00.977Z,13.90
2022-12-03T21:11:33.656Z,13.98
2022-12-03T21:14:02.159Z,15.20
2022-12-03T21:16:59.695Z,13.95
2022-12-03T21:19:22.027Z,14.32
2022-12-03T21:21:50.582Z,15.10
2022-12-03T21:24:19.281Z,14.65
2022-12-03T21:26:50.297Z,14.88
2022-12-03T21:29:18.807Z,14.35
2022-12-03T21:31:47.294Z,14.57
2022-12-03T21:34:15.998Z,15.02
2022-12-03T21:36:44.328Z,15.32
2022-12-03T21:39:12.883Z,15.43
2022-12-03T21:41:41.725Z,14.02
2022-12-03T21:44:31.765Z,14.63
2022-12-03T21:47:12.530Z,14.45
2022-12-03T21:49:42.679Z,16.42
2022-12-03T21:52:11.244Z,16.20
2022-12-03T21:54:39.626Z,15.70
2022-12-03T21:57:07.901Z,16.88
2022-12-03T21:59:37.682Z,19.83
2022-12-03T22:02:06.397Z,16.60
2022-12-03T22:04:34.850Z,15.80
2022-12-03T22:07:03.817Z,15.38
2022-12-03T22:09:33.286Z,16.95
2022-12-03T22:12:01.805Z,16.95
2022-12-03T22:14:30.289Z,16.92
2022-12-03T22:17:00.417Z,15.90
2022-12-03T22:19:29.470Z,16.17
2022-12-03T22:21:57.935Z,16.67
2022-12-03T22:24:26.562Z,17.98
2022-12-03T22:26:55.102Z,17.13
2022-12-03T22:29:24.043Z,20.25
2022-12-03T22:31:52.311Z,17.90
2022-12-03T22:34:22.282Z,17.20
2022-12-03T22:36:51.007Z,17.33
2022-12-03T22:39:19.462Z,17.35
2022-12-03T22:41:47.931Z,18.35
2022-12-03T22:44:16.401Z,19.95
2022-12-03T22:46:44.806Z,18.38
2022-12-03T22:49:14.356Z,18.23
2022-12-03T22:51:46.472Z,17.77
2022-12-03T22:54:18.303Z,18.05
2022-12-03T22:56:50.760Z,17.80
2022-12-03T22:59:19.396Z,16.60
2022-12-03T23:01:47.824Z,17.17
2022-12-03T23:04:16.226Z,18.63
2022-12-03T23:06:46.171Z,18.52
2022-12-03T23:09:14.549Z,18.67
2022-12-03T23:11:46.145Z,16.65
2022-12-03T23:14:14.659Z,18.10
2022-12-03T23:16:43.067Z,18.10
2022-12-03T23:19:11.797Z,17.73
2022-12-03T23:21:40.501Z,16.77
2022-12-03T23:24:11.398Z,17.70
2022-12-03T23:26:40.779Z,17.67
2022-12-03T23:29:09.889Z,18.20
2022-12-03T23:31:38.913Z,17.77
2022-12-03T23:34:07.449Z,17.00
2022-12-03T23:36:36.724Z,17.88
2022-12-03T23:39:05.615Z,17.67
2022-12-03T23:41:36.285Z,15.95
2022-12-03T23:44:04.763Z,17.33
2022-12-03T23:46:33.217Z,17.52
2022-12-03T23:49:01.899Z,18.08
2022-12-03T23:51:30.276Z,19.60
2022-12-03T23:53:58.600Z,18.65
2022-12-03T23:56:29.281Z,18.48
2022-12-03T23:59:00.238Z,18.38
